Madeline — WDF2406 — position and weather

sailwx.info

Track history (hours):
 
Tides and Currents Weather Stations Pressure Air Temp Water Temp Dewpoint Dewpoint Depression Visibility Wind Speed Wind Dir Waves Ship Positions

Madeline

Owner: Enterprise Marine Services, LLC, San Antonio, TX. More information available from US FCC via Universal Licensing System and Coast Guard Vessel Documentation Center.

Last reported at 2016-Aug-19 22:23 UTC. Time now 2016-Aug-24 13:49 UTC.
Position N 32°40' W 091°07'.

; draft 3 m.

Type: Ship (hazmat cat B). MMSI: 367350460.

Date/timePositionNaut miles runAvg speedWind from/ knotsBaromVisibWave heightAir tempDewpointWater temp
2016-Aug-19 22:23N 32°40' W 091°07'3 3.7
2016-Aug-19 21:33N 32°38' W 091°09'5 4.9
2016-Aug-19 20:34N 32°34' W 091°06'5 4.7
2016-Aug-19 19:34N 32°29' W 091°07'5 4.9
2016-Aug-19 18:34N 32°26' W 091°02'4 3.8
2016-Aug-19 17:34N 32°23' W 091°00'3 3.4
2016-Aug-19 16:33N 32°21' W 090°57'3 3.2
2016-Aug-19 15:33N 32°18' W 090°55'4 4.4
2016-Aug-19 14:34N 32°14' W 090°59'5 4.9
2016-Aug-19 13:34N 32°10' W 091°00'5 3.6
2016-Aug-19 12:13N 32°08' W 091°05'3 3.3
2016-Aug-19 11:15N 32°05' W 091°04'3 4.2
2016-Aug-19 10:31N 32°02' W 091°04'7 3.7
2016-Aug-19 08:34N 31°58' W 091°11'12 3.9
2016-Aug-19 05:32N 31°49' W 091°21'  
2016-Aug-16 20:18N 29°51' W 091°53'4 5.3
2016-Aug-16 19:33N 29°50' W 091°58'5 5.1
2016-Aug-16 18:33N 29°49' W 092°03'5 5.3
2016-Aug-16 17:33N 29°47' W 092°09'4 4.0
2016-Aug-16 16:33N 29°48' W 092°14'2 2.2
2016-Aug-16 15:34N 29°48' W 092°16'4 4.3
2016-Aug-16 14:33N 29°51' W 092°20'5 4.5
2016-Aug-16 13:33N 29°53' W 092°24'22 4.9
2016-Aug-16 09:05N 29°58' W 092°49'1 2.8
2016-Aug-16 08:33N 29°58' W 092°51'4 3.9
2016-Aug-16 07:33N 29°56' W 092°55'4 3.5
2016-Aug-16 06:33N 29°56' W 092°59'6 3.1
2016-Aug-16 04:33N 29°56' W 093°06'3 3.1
2016-Aug-16 03:33N 29°56' W 093°09'4 3.8
2016-Aug-16 02:33N 29°59' W 093°12'3 3.4
2016-Aug-16 01:33N 30°02' W 093°14'2 2.3
2016-Aug-16 00:33N 30°04' W 093°16'2 2.4
2016-Aug-15 23:33N 30°05' W 093°18'3 2.7
2016-Aug-15 22:33N 30°04' W 093°21'4 3.9
2016-Aug-15 21:33N 30°04' W 093°25'5 4.6
2016-Aug-15 20:33N 30°04' W 093°30'5 4.9
2016-Aug-15 19:33N 30°04' W 093°36'5 5.1
2016-Aug-15 18:33N 30°03' W 093°42'5 5.3
2016-Aug-15 17:33N 29°60' W 093°46'5 5.5
2016-Aug-15 16:33N 29°57' W 093°52'59 3.7
2016-Aug-15 00:33N 29°32' W 094°54'8 7.9
2016-Aug-14 23:33N 29°39' W 094°58'6 5.6
2016-Aug-14 22:31N 29°44' W 095°03'3 1.2
2016-Aug-14 20:13N 29°46' W 095°05'3 4.6
2016-Aug-14 19:28N 29°44' W 095°08'0 0.0
2016-Aug-14 03:31N 29°44' W 095°09'5 4.7
2016-Aug-14 02:33N 29°47' W 095°05'0 0.0
2016-Aug-12 09:33N 29°47' W 095°05'3 0.2
2016-Aug-11 16:33N 29°44' W 095°07'2 0.1
2016-Aug-10 06:15N 29°44' W 095°09'5 3.1
2016-Aug-10 04:29N 29°47' W 095°04'  
Track history (hours):
 
Tides and Currents Weather Stations Pressure Air Temp Water Temp Dewpoint Dewpoint Depression Visibility Wind Speed Wind Dir Waves Ship Positions

Madeline

Owner: Enterprise Marine Services, LLC, San Antonio, TX. More information available from US FCC via Universal Licensing System and Coast Guard Vessel Documentation Center.

Last reported at 2016-Aug-19 22:23 UTC. Time now 2016-Aug-24 13:49 UTC.
Position N 32°40' W 091°07'.

; draft 3 m.

Type: Ship (hazmat cat B). MMSI: 367350460.

Date/timePositionNaut miles runAvg speedWind from/ knotsBaromVisibWave heightAir tempDewpointWater temp
2016-Aug-19 22:23N 32°40' W 091°07'3 3.7
2016-Aug-19 21:33N 32°38' W 091°09'5 4.9
2016-Aug-19 20:34N 32°34' W 091°06'5 4.7
2016-Aug-19 19:34N 32°29' W 091°07'5 4.9
2016-Aug-19 18:34N 32°26' W 091°02'4 3.8
2016-Aug-19 17:34N 32°23' W 091°00'3 3.4
2016-Aug-19 16:33N 32°21' W 090°57'3 3.2
2016-Aug-19 15:33N 32°18' W 090°55'4 4.4
2016-Aug-19 14:34N 32°14' W 090°59'5 4.9
2016-Aug-19 13:34N 32°10' W 091°00'5 3.6
2016-Aug-19 12:13N 32°08' W 091°05'3 3.3
2016-Aug-19 11:15N 32°05' W 091°04'3 4.2
2016-Aug-19 10:31N 32°02' W 091°04'7 3.7
2016-Aug-19 08:34N 31°58' W 091°11'12 3.9
2016-Aug-19 05:32N 31°49' W 091°21'  
2016-Aug-16 20:18N 29°51' W 091°53'4 5.3
2016-Aug-16 19:33N 29°50' W 091°58'5 5.1
2016-Aug-16 18:33N 29°49' W 092°03'5 5.3
2016-Aug-16 17:33N 29°47' W 092°09'4 4.0
2016-Aug-16 16:33N 29°48' W 092°14'2 2.2
2016-Aug-16 15:34N 29°48' W 092°16'4 4.3
2016-Aug-16 14:33N 29°51' W 092°20'5 4.5
2016-Aug-16 13:33N 29°53' W 092°24'22 4.9
2016-Aug-16 09:05N 29°58' W 092°49'1 2.8
2016-Aug-16 08:33N 29°58' W 092°51'4 3.9
2016-Aug-16 07:33N 29°56' W 092°55'4 3.5
2016-Aug-16 06:33N 29°56' W 092°59'6 3.1
2016-Aug-16 04:33N 29°56' W 093°06'3 3.1
2016-Aug-16 03:33N 29°56' W 093°09'4 3.8
2016-Aug-16 02:33N 29°59' W 093°12'3 3.4
2016-Aug-16 01:33N 30°02' W 093°14'2 2.3
2016-Aug-16 00:33N 30°04' W 093°16'2 2.4
2016-Aug-15 23:33N 30°05' W 093°18'3 2.7
2016-Aug-15 22:33N 30°04' W 093°21'4 3.9
2016-Aug-15 21:33N 30°04' W 093°25'5 4.6
2016-Aug-15 20:33N 30°04' W 093°30'5 4.9
2016-Aug-15 19:33N 30°04' W 093°36'5 5.1
2016-Aug-15 18:33N 30°03' W 093°42'5 5.3
2016-Aug-15 17:33N 29°60' W 093°46'5 5.5
2016-Aug-15 16:33N 29°57' W 093°52'59 3.7
2016-Aug-15 00:33N 29°32' W 094°54'8 7.9
2016-Aug-14 23:33N 29°39' W 094°58'6 5.6
2016-Aug-14 22:31N 29°44' W 095°03'3 1.2
2016-Aug-14 20:13N 29°46' W 095°05'3 4.6
2016-Aug-14 19:28N 29°44' W 095°08'0 0.0
2016-Aug-14 03:31N 29°44' W 095°09'5 4.7
2016-Aug-14 02:33N 29°47' W 095°05'0 0.0
2016-Aug-12 09:33N 29°47' W 095°05'3 0.2
2016-Aug-11 16:33N 29°44' W 095°07'2 0.1
2016-Aug-10 06:15N 29°44' W 095°09'5 3.1
2016-Aug-10 04:29N 29°47' W 095°04'  

Dump ship's entire track history